sensor_id;sensor_type;location;lat;lon;timestamp;temperature;humidity
33095;DHT22;19459;53.044;8.910;2022-09-27T00:01:00;11.00;99.90
33095;DHT22;19459;53.044;8.910;2022-09-27T00:03:28;11.00;99.90
33095;DHT22;19459;53.044;8.910;2022-09-27T00:06:05;11.00;99.90
33095;DHT22;19459;53.044;8.910;2022-09-27T00:08:33;11.00;99.90
33095;DHT22;19459;53.044;8.910;2022-09-27T00:11:01;11.00;99.90
33095;DHT22;19459;53.044;8.910;2022-09-27T00:17:08;11.00;99.90
33095;DHT22;19459;53.044;8.910;2022-09-27T00:19:34;11.00;99.90
33095;DHT22;19459;53.044;8.910;2022-09-27T00:21:59;11.00;99.90
33095;DHT22;19459;53.044;8.910;2022-09-27T00:24:26;11.00;99.90
33095;DHT22;19459;53.044;8.910;2022-09-27T00:26:51;11.00;99.90
33095;DHT22;19459;53.044;8.910;2022-09-27T00:29:18;11.00;99.90
33095;DHT22;19459;53.044;8.910;2022-09-27T00:31:44;11.10;99.90
33095;DHT22;19459;53.044;8.910;2022-09-27T00:34:17;11.10;99.90
33095;DHT22;19459;53.044;8.910;2022-09-27T00:36:44;11.10;99.90
33095;DHT22;19459;53.044;8.910;2022-09-27T00:39:11;11.10;99.90
33095;DHT22;19459;53.044;8.910;2022-09-27T00:41:37;11.00;99.90
33095;DHT22;19459;53.044;8.910;2022-09-27T00:44:41;11.10;99.90
33095;DHT22;19459;53.044;8.910;2022-09-27T00:47:09;11.10;99.90
33095;DHT22;19459;53.044;8.910;2022-09-27T00:49:44;11.10;99.90
33095;DHT22;19459;53.044;8.910;2022-09-27T00:52:26;11.10;99.90
33095;DHT22;19459;53.044;8.910;2022-09-27T00:54:59;11.20;99.90
33095;DHT22;19459;53.044;8.910;2022-09-27T00:57:29;11.20;99.90
33095;DHT22;19459;53.044;8.910;2022-09-27T01:00:06;11.20;99.90
33095;DHT22;19459;53.044;8.910;2022-09-27T01:02:35;11.20;99.90
33095;DHT22;19459;53.044;8.910;2022-09-27T01:05:05;11.20;99.90
33095;DHT22;19459;53.044;8.910;2022-09-27T01:07:31;11.30;99.90
33095;DHT22;19459;53.044;8.910;2022-09-27T01:09:57;11.30;99.90
33095;DHT22;19459;53.044;8.910;2022-09-27T01:32:17;11.40;99.90
33095;DHT22;19459;53.044;8.910;2022-09-27T01:35:15;11.30;99.90
33095;DHT22;19459;53.044;8.910;2022-09-27T01:37:58;11.40;99.90
33095;DHT22;19459;53.044;8.910;2022-09-27T01:40:55;11.40;99.90
33095;DHT22;19459;53.044;8.910;2022-09-27T01:43:32;11.40;99.90
33095;DHT22;19459;53.044;8.910;2022-09-27T01:46:43;11.40;99.90
33095;DHT22;19459;53.044;8.910;2022-09-27T01:49:16;11.40;99.90
33095;DHT22;19459;53.044;8.910;2022-09-27T01:51:51;11.40;99.90
33095;DHT22;19459;53.044;8.910;2022-09-27T01:54:39;11.40;99.90
33095;DHT22;19459;53.044;8.910;2022-09-27T01:57:10;11.40;99.90
33095;DHT22;19459;53.044;8.910;2022-09-27T01:59:51;11.40;99.90
33095;DHT22;19459;53.044;8.910;2022-09-27T02:02:23;11.40;99.90
33095;DHT22;19459;53.044;8.910;2022-09-27T02:04:51;11.40;99.90
33095;DHT22;19459;53.044;8.910;2022-09-27T02:07:26;11.40;99.90
33095;DHT22;19459;53.044;8.910;2022-09-27T02:10:18;11.40;99.90
33095;DHT22;19459;53.044;8.910;2022-09-27T02:12:51;11.40;99.90
33095;DHT22;19459;53.044;8.910;2022-09-27T02:15:23;11.40;99.90
33095;DHT22;19459;53.044;8.910;2022-09-27T02:18:09;11.40;99.90
33095;DHT22;19459;53.044;8.910;2022-09-27T02:20:45;11.40;99.90
33095;DHT22;19459;53.044;8.910;2022-09-27T02:26:15;11.40;99.90
33095;DHT22;19459;53.044;8.910;2022-09-27T02:31:32;11.40;99.90
33095;DHT22;19459;53.044;8.910;2022-09-27T02:34:08;11.30;99.90
33095;DHT22;19459;53.044;8.910;2022-09-27T02:36:39;11.30;99.90
33095;DHT22;19459;53.044;8.910;2022-09-27T02:39:05;11.30;99.90
33095;DHT22;19459;53.044;8.910;2022-09-27T02:41:31;11.20;99.90
33095;DHT22;19459;53.044;8.910;2022-09-27T02:44:04;11.30;99.90
33095;DHT22;19459;53.044;8.910;2022-09-27T02:49:42;11.20;99.90
33095;DHT22;19459;53.044;8.910;2022-09-27T02:52:39;11.20;99.90
33095;DHT22;19459;53.044;8.910;2022-09-27T02:55:20;11.20;99.90
33095;DHT22;19459;53.044;8.910;2022-09-27T03:03:51;11.20;99.90
33095;DHT22;19459;53.044;8.910;2022-09-27T03:06:21;11.10;99.90
33095;DHT22;19459;53.044;8.910;2022-09-27T03:08:48;11.20;99.90
33095;DHT22;19459;53.044;8.910;2022-09-27T03:11:14;11.20;99.90
33095;DHT22;19459;53.044;8.910;2022-09-27T03:13:41;11.20;99.90
33095;DHT22;19459;53.044;8.910;2022-09-27T03:16:08;11.10;99.90
33095;DHT22;19459;53.044;8.910;2022-09-27T03:18:34;11.10;99.90
33095;DHT22;19459;53.044;8.910;2022-09-27T03:20:59;11.10;99.90
33095;DHT22;19459;53.044;8.910;2022-09-27T03:23:25;11.00;99.90
33095;DHT22;19459;53.044;8.910;2022-09-27T03:25:52;11.10;99.90
33095;DHT22;19459;53.044;8.910;2022-09-27T03:28:18;11.00;99.90
33095;DHT22;19459;53.044;8.910;2022-09-27T03:30:44;11.00;99.90
33095;DHT22;19459;53.044;8.910;2022-09-27T03:33:11;11.00;99.90
33095;DHT22;19459;53.044;8.910;2022-09-27T03:35:38;11.00;99.90
33095;DHT22;19459;53.044;8.910;2022-09-27T03:38:04;11.00;99.90
33095;DHT22;19459;53.044;8.910;2022-09-27T03:40:31;11.00;99.90
33095;DHT22;19459;53.044;8.910;2022-09-27T03:42:57;11.00;99.90
33095;DHT22;19459;53.044;8.910;2022-09-27T03:45:23;11.00;99.90
33095;DHT22;19459;53.044;8.910;2022-09-27T03:47:49;11.00;99.90
33095;DHT22;19459;53.044;8.910;2022-09-27T03:50:14;11.00;99.90
33095;DHT22;19459;53.044;8.910;2022-09-27T03:52:42;11.00;99.90
33095;DHT22;19459;53.044;8.910;2022-09-27T03:55:10;11.00;99.90
33095;DHT22;19459;53.044;8.910;2022-09-27T03:57:38;11.00;99.90
33095;DHT22;19459;53.044;8.910;2022-09-27T04:00:09;10.90;99.90
33095;DHT22;19459;53.044;8.910;2022-09-27T04:02:36;10.90;99.90
33095;DHT22;19459;53.044;8.910;2022-09-27T04:05:01;10.90;99.90
33095;DHT22;19459;53.044;8.910;2022-09-27T04:07:27;10.90;99.90
33095;DHT22;19459;53.044;8.910;2022-09-27T04:09:54;10.90;99.90
33095;DHT22;19459;53.044;8.910;2022-09-27T04:12:20;10.90;99.90
33095;DHT22;19459;53.044;8.910;2022-09-27T04:14:45;10.90;99.90
33095;DHT22;19459;53.044;8.910;2022-09-27T04:17:11;10.80;99.90
33095;DHT22;19459;53.044;8.910;2022-09-27T04:19:37;10.80;99.90
33095;DHT22;19459;53.044;8.910;2022-09-27T04:22:04;10.80;99.90
33095;DHT22;19459;53.044;8.910;2022-09-27T04:24:30;10.80;99.90
33095;DHT22;19459;53.044;8.910;2022-09-27T04:26:56;10.80;99.90
33095;DHT22;19459;53.044;8.910;2022-09-27T04:29:21;10.80;99.90
33095;DHT22;19459;53.044;8.910;2022-09-27T04:31:47;10.80;99.90
33095;DHT22;19459;53.044;8.910;2022-09-27T04:34:13;10.70;99.90
33095;DHT22;19459;53.044;8.910;2022-09-27T04:36:39;10.80;99.90
33095;DHT22;19459;53.044;8.910;2022-09-27T04:39:06;10.80;99.90
33095;DHT22;19459;53.044;8.910;2022-09-27T04:41:33;10.80;99.90
33095;DHT22;19459;53.044;8.910;2022-09-27T04:44:00;10.80;99.90
33095;DHT22;19459;53.044;8.910;2022-09-27T04:46:28;10.80;99.90
33095;DHT22;19459;53.044;8.910;2022-09-27T04:48:59;10.80;99.90
33095;DHT22;19459;53.044;8.910;2022-09-27T04:51:25;10.80;99.90
33095;DHT22;19459;53.044;8.910;2022-09-27T04:53:51;10.80;99.90
33095;DHT22;19459;53.044;8.910;2022-09-27T04:56:17;10.80;99.90
33095;DHT22;19459;53.044;8.910;2022-09-27T04:58:43;10.80;99.90
33095;DHT22;19459;53.044;8.910;2022-09-27T05:01:09;10.80;99.90
33095;DHT22;19459;53.044;8.910;2022-09-27T05:03:34;10.80;99.90
33095;DHT22;19459;53.044;8.910;2022-09-27T05:06:01;10.80;99.90
33095;DHT22;19459;53.044;8.910;2022-09-27T05:08:27;10.80;99.90
33095;DHT22;19459;53.044;8.910;2022-09-27T05:10:54;10.80;99.90
33095;DHT22;19459;53.044;8.910;2022-09-27T05:13:20;10.80;99.90
33095;DHT22;19459;53.044;8.910;2022-09-27T05:15:46;10.80;99.90
33095;DHT22;19459;53.044;8.910;2022-09-27T05:18:12;10.80;99.90
33095;DHT22;19459;53.044;8.910;2022-09-27T05:20:38;10.80;99.90
33095;DHT22;19459;53.044;8.910;2022-09-27T05:23:04;10.70;99.90
33095;DHT22;19459;53.044;8.910;2022-09-27T05:25:31;10.70;99.90
33095;DHT22;19459;53.044;8.910;2022-09-27T05:27:57;10.70;99.90
33095;DHT22;19459;53.044;8.910;2022-09-27T05:30:24;10.70;99.90
33095;DHT22;19459;53.044;8.910;2022-09-27T05:32:50;10.70;99.90
33095;DHT22;19459;53.044;8.910;2022-09-27T05:35:17;10.60;99.90
33095;DHT22;19459;53.044;8.910;2022-09-27T05:37:58;10.70;99.90
33095;DHT22;19459;53.044;8.910;2022-09-27T05:40:25;10.60;99.90
33095;DHT22;19459;53.044;8.910;2022-09-27T05:42:52;10.60;99.90
33095;DHT22;19459;53.044;8.910;2022-09-27T05:45:19;10.60;99.90
33095;DHT22;19459;53.044;8.910;2022-09-27T05:47:53;10.60;99.90
33095;DHT22;19459;53.044;8.910;2022-09-27T05:50:20;10.70;99.90
33095;DHT22;19459;53.044;8.910;2022-09-27T05:52:46;10.60;99.90
33095;DHT22;19459;53.044;8.910;2022-09-27T05:55:13;10.70;99.90
33095;DHT22;19459;53.044;8.910;2022-09-27T05:57:39;10.70;99.90
33095;DHT22;19459;53.044;8.910;2022-09-27T06:00:05;10.70;99.90
33095;DHT22;19459;53.044;8.910;2022-09-27T06:02:32;10.70;99.90
33095;DHT22;19459;53.044;8.910;2022-09-27T06:04:59;10.60;99.90
33095;DHT22;19459;53.044;8.910;2022-09-27T06:07:25;10.60;99.90
33095;DHT22;19459;53.044;8.910;2022-09-27T06:09:53;10.70;99.90
33095;DHT22;19459;53.044;8.910;2022-09-27T06:12:18;10.70;99.90
33095;DHT22;19459;53.044;8.910;2022-09-27T06:14:44;10.70;99.90
33095;DHT22;19459;53.044;8.910;2022-09-27T06:17:10;10.70;99.90
33095;DHT22;19459;53.044;8.910;2022-09-27T06:19:36;10.70;99.90
33095;DHT22;19459;53.044;8.910;2022-09-27T06:22:01;10.70;99.90
33095;DHT22;19459;53.044;8.910;2022-09-27T06:24:27;10.70;99.90
33095;DHT22;19459;53.044;8.910;2022-09-27T06:26:53;10.80;99.90
33095;DHT22;19459;53.044;8.910;2022-09-27T06:29:19;10.70;99.90
33095;DHT22;19459;53.044;8.910;2022-09-27T06:31:45;10.70;99.90
33095;DHT22;19459;53.044;8.910;2022-09-27T06:34:10;10.70;99.90
33095;DHT22;19459;53.044;8.910;2022-09-27T06:36:36;10.80;99.90
33095;DHT22;19459;53.044;8.910;2022-09-27T06:39:02;10.80;99.90
33095;DHT22;19459;53.044;8.910;2022-09-27T06:41:27;10.80;99.90
33095;DHT22;19459;53.044;8.910;2022-09-27T06:43:53;10.80;99.90
33095;DHT22;19459;53.044;8.910;2022-09-27T06:46:19;10.80;99.90
33095;DHT22;19459;53.044;8.910;2022-09-27T06:48:45;10.90;99.90
33095;DHT22;19459;53.044;8.910;2022-09-27T06:51:11;11.00;99.90
33095;DHT22;19459;53.044;8.910;2022-09-27T06:53:37;11.00;99.90
33095;DHT22;19459;53.044;8.910;2022-09-27T06:56:03;11.00;99.90
33095;DHT22;19459;53.044;8.910;2022-09-27T06:58:28;11.00;99.90
33095;DHT22;19459;53.044;8.910;2022-09-27T07:01:13;11.00;99.90
33095;DHT22;19459;53.044;8.910;2022-09-27T07:03:39;11.00;99.90
33095;DHT22;19459;53.044;8.910;2022-09-27T07:06:14;11.10;99.90
33095;DHT22;19459;53.044;8.910;2022-09-27T07:08:42;11.20;99.90
33095;DHT22;19459;53.044;8.910;2022-09-27T07:11:08;11.20;99.90
33095;DHT22;19459;53.044;8.910;2022-09-27T07:13:34;11.20;99.90
33095;DHT22;19459;53.044;8.910;2022-09-27T07:16:04;11.10;99.90
33095;DHT22;19459;53.044;8.910;2022-09-27T07:18:30;11.20;99.90
33095;DHT22;19459;53.044;8.910;2022-09-27T07:20:58;11.20;99.90
33095;DHT22;19459;53.044;8.910;2022-09-27T07:23:25;11.20;99.90
33095;DHT22;19459;53.044;8.910;2022-09-27T07:25:51;11.20;99.90
33095;DHT22;19459;53.044;8.910;2022-09-27T07:28:18;11.20;99.90
33095;DHT22;19459;53.044;8.910;2022-09-27T07:30:45;11.30;99.90
33095;DHT22;19459;53.044;8.910;2022-09-27T07:33:11;11.30;99.90
33095;DHT22;19459;53.044;8.910;2022-09-27T07:35:41;11.30;99.90
33095;DHT22;19459;53.044;8.910;2022-09-27T07:38:10;11.30;99.90
33095;DHT22;19459;53.044;8.910;2022-09-27T07:40:40;11.30;99.90
33095;DHT22;19459;53.044;8.910;2022-09-27T07:43:06;11.40;99.90
33095;DHT22;19459;53.044;8.910;2022-09-27T07:45:36;11.40;99.90
33095;DHT22;19459;53.044;8.910;2022-09-27T07:48:12;11.30;99.90
33095;DHT22;19459;53.044;8.910;2022-09-27T07:50:39;11.40;99.90
33095;DHT22;19459;53.044;8.910;2022-09-27T07:53:05;11.40;99.90
33095;DHT22;19459;53.044;8.910;2022-09-27T07:55:31;11.50;99.90
33095;DHT22;19459;53.044;8.910;2022-09-27T07:58:07;11.60;99.90
33095;DHT22;19459;53.044;8.910;2022-09-27T08:00:35;11.70;99.90
33095;DHT22;19459;53.044;8.910;2022-09-27T08:03:13;11.70;99.90
33095;DHT22;19459;53.044;8.910;2022-09-27T08:05:45;11.70;99.90
33095;DHT22;19459;53.044;8.910;2022-09-27T08:08:12;11.70;99.90
33095;DHT22;19459;53.044;8.910;2022-09-27T08:10:39;11.70;99.90
33095;DHT22;19459;53.044;8.910;2022-09-27T08:13:09;11.70;99.90
33095;DHT22;19459;53.044;8.910;2022-09-27T08:15:35;11.70;99.90
33095;DHT22;19459;53.044;8.910;2022-09-27T08:18:04;11.70;99.90
33095;DHT22;19459;53.044;8.910;2022-09-27T08:20:30;11.80;99.90
33095;DHT22;19459;53.044;8.910;2022-09-27T08:22:56;11.80;99.90
33095;DHT22;19459;53.044;8.910;2022-09-27T08:25:22;11.70;99.90
33095;DHT22;19459;53.044;8.910;2022-09-27T08:27:56;11.70;99.90
33095;DHT22;19459;53.044;8.910;2022-09-27T08:30:26;11.60;99.90
33095;DHT22;19459;53.044;8.910;2022-09-27T08:32:59;11.60;99.90
33095;DHT22;19459;53.044;8.910;2022-09-27T08:35:27;11.70;99.90
33095;DHT22;19459;53.044;8.910;2022-09-27T08:37:58;11.70;99.90
33095;DHT22;19459;53.044;8.910;2022-09-27T08:48:58;11.80;99.90
33095;DHT22;19459;53.044;8.910;2022-09-27T08:51:31;11.90;99.90
33095;DHT22;19459;53.044;8.910;2022-09-27T08:54:13;11.80;99.90
33095;DHT22;19459;53.044;8.910;2022-09-27T08:56:43;11.90;99.90
33095;DHT22;19459;53.044;8.910;2022-09-27T08:59:13;11.90;99.90
33095;DHT22;19459;53.044;8.910;2022-09-27T09:01:45;11.90;99.90
33095;DHT22;19459;53.044;8.910;2022-09-27T09:04:14;12.00;99.90
33095;DHT22;19459;53.044;8.910;2022-09-27T09:21:10;12.10;99.90
33095;DHT22;19459;53.044;8.910;2022-09-27T09:24:02;12.00;99.90
33095;DHT22;19459;53.044;8.910;2022-09-27T09:29:44;11.90;99.90
33095;DHT22;19459;53.044;8.910;2022-09-27T09:32:33;11.90;99.90
33095;DHT22;19459;53.044;8.910;2022-09-27T09:35:14;12.00;99.90
33095;DHT22;19459;53.044;8.910;2022-09-27T09:37:48;12.00;99.90
33095;DHT22;19459;53.044;8.910;2022-09-27T09:40:23;12.00;99.90
33095;DHT22;19459;53.044;8.910;2022-09-27T09:43:03;12.10;99.90
33095;DHT22;19459;53.044;8.910;2022-09-27T09:45:48;11.90;99.90
33095;DHT22;19459;53.044;8.910;2022-09-27T09:51:01;11.80;99.90
33095;DHT22;19459;53.044;8.910;2022-09-27T09:56:19;11.70;99.90
33095;DHT22;19459;53.044;8.910;2022-09-27T09:59:11;11.70;99.90
33095;DHT22;19459;53.044;8.910;2022-09-27T10:01:48;11.80;99.90
33095;DHT22;19459;53.044;8.910;2022-09-27T10:04:22;11.70;99.90
33095;DHT22;19459;53.044;8.910;2022-09-27T10:06:52;11.70;99.90
33095;DHT22;19459;53.044;8.910;2022-09-27T10:09:25;11.80;99.90
33095;DHT22;19459;53.044;8.910;2022-09-27T10:11:52;11.70;99.90
33095;DHT22;19459;53.044;8.910;2022-09-27T10:14:20;11.50;99.90
33095;DHT22;19459;53.044;8.910;2022-09-27T10:16:50;11.50;99.90
33095;DHT22;19459;53.044;8.910;2022-09-27T10:19:24;11.50;99.90
33095;DHT22;19459;53.044;8.910;2022-09-27T10:22:00;11.50;99.90
33095;DHT22;19459;53.044;8.910;2022-09-27T10:24:28;11.50;99.90
33095;DHT22;19459;53.044;8.910;2022-09-27T10:26:58;11.60;99.90
33095;DHT22;19459;53.044;8.910;2022-09-27T10:29:32;11.70;99.90
33095;DHT22;19459;53.044;8.910;2022-09-27T10:32:01;11.60;99.90
33095;DHT22;19459;53.044;8.910;2022-09-27T10:34:40;11.70;99.90
33095;DHT22;19459;53.044;8.910;2022-09-27T10:37:16;11.70;99.90
33095;DHT22;19459;53.044;8.910;2022-09-27T10:39:45;11.70;99.90
33095;DHT22;19459;53.044;8.910;2022-09-27T10:42:42;11.70;99.90
33095;DHT22;19459;53.044;8.910;2022-09-27T10:45:27;11.80;99.90
33095;DHT22;19459;53.044;8.910;2022-09-27T10:47:53;11.80;99.90
33095;DHT22;19459;53.044;8.910;2022-09-27T10:50:25;11.80;99.90
33095;DHT22;19459;53.044;8.910;2022-09-27T10:53:04;11.80;99.90
33095;DHT22;19459;53.044;8.910;2022-09-27T10:55:38;11.80;99.90
33095;DHT22;19459;53.044;8.910;2022-09-27T10:58:05;11.90;99.90
33095;DHT22;19459;53.044;8.910;2022-09-27T11:00:35;11.90;99.90
33095;DHT22;19459;53.044;8.910;2022-09-27T11:03:13;12.00;99.90
33095;DHT22;19459;53.044;8.910;2022-09-27T11:05:40;11.90;99.90
33095;DHT22;19459;53.044;8.910;2022-09-27T11:08:23;11.80;99.90
33095;DHT22;19459;53.044;8.910;2022-09-27T11:13:29;12.00;99.90
33095;DHT22;19459;53.044;8.910;2022-09-27T11:16:17;12.10;99.90
33095;DHT22;19459;53.044;8.910;2022-09-27T11:18:58;12.10;99.90
33095;DHT22;19459;53.044;8.910;2022-09-27T11:25:37;12.00;99.90
33095;DHT22;19459;53.044;8.910;2022-09-27T11:31:43;12.00;99.90
33095;DHT22;19459;53.044;8.910;2022-09-27T11:42:57;11.70;99.90
33095;DHT22;19459;53.044;8.910;2022-09-27T11:48:51;11.90;99.90
33095;DHT22;19459;53.044;8.910;2022-09-27T11:54:14;12.00;99.90
33095;DHT22;19459;53.044;8.910;2022-09-27T12:06:15;12.10;99.90
33095;DHT22;19459;53.044;8.910;2022-09-27T12:09:00;12.00;99.90
33095;DHT22;19459;53.044;8.910;2022-09-27T12:14:35;12.20;99.90
33095;DHT22;19459;53.044;8.910;2022-09-27T12:17:07;12.20;99.90
33095;DHT22;19459;53.044;8.910;2022-09-27T12:19:38;12.20;99.90
33095;DHT22;19459;53.044;8.910;2022-09-27T12:22:13;12.20;99.90
33095;DHT22;19459;53.044;8.910;2022-09-27T12:24:42;12.20;99.90
33095;DHT22;19459;53.044;8.910;2022-09-27T12:27:14;12.30;99.90
33095;DHT22;19459;53.044;8.910;2022-09-27T12:29:45;12.10;99.90
33095;DHT22;19459;53.044;8.910;2022-09-27T12:32:30;12.10;99.90
33095;DHT22;19459;53.044;8.910;2022-09-27T12:35:18;12.20;99.90
33095;DHT22;19459;53.044;8.910;2022-09-27T12:37:59;12.30;99.90
33095;DHT22;19459;53.044;8.910;2022-09-27T12:40:33;12.40;99.90
33095;DHT22;19459;53.044;8.910;2022-09-27T12:43:18;12.50;99.90
33095;DHT22;19459;53.044;8.910;2022-09-27T12:52:02;12.50;99.90
33095;DHT22;19459;53.044;8.910;2022-09-27T13:00:57;12.50;99.90
33095;DHT22;19459;53.044;8.910;2022-09-27T13:09:31;12.50;99.90
33095;DHT22;19459;53.044;8.910;2022-09-27T13:12:25;12.40;99.90
33095;DHT22;19459;53.044;8.910;2022-09-27T13:17:58;12.50;99.90
33095;DHT22;19459;53.044;8.910;2022-09-27T13:23:01;12.50;99.90
33095;DHT22;19459;53.044;8.910;2022-09-27T13:26:02;12.50;99.90
33095;DHT22;19459;53.044;8.910;2022-09-27T13:30:57;12.50;99.90
33095;DHT22;19459;53.044;8.910;2022-09-27T13:33:32;12.50;99.90
33095;DHT22;19459;53.044;8.910;2022-09-27T13:49:56;12.60;99.90
33095;DHT22;19459;53.044;8.910;2022-09-27T13:53:21;12.60;99.90
33095;DHT22;19459;53.044;8.910;2022-09-27T13:55:51;12.60;99.90
33095;DHT22;19459;53.044;8.910;2022-09-27T14:01:04;12.70;99.90
33095;DHT22;19459;53.044;8.910;2022-09-27T14:03:55;12.60;99.90
33095;DHT22;19459;53.044;8.910;2022-09-27T14:06:32;12.60;99.90
33095;DHT22;19459;53.044;8.910;2022-09-27T14:09:12;12.40;99.90
33095;DHT22;19459;53.044;8.910;2022-09-27T14:11:43;12.30;99.90
33095;DHT22;19459;53.044;8.910;2022-09-27T14:14:19;12.30;99.90
33095;DHT22;19459;53.044;8.910;2022-09-27T14:16:48;12.40;99.90
33095;DHT22;19459;53.044;8.910;2022-09-27T14:19:17;12.30;99.90
33095;DHT22;19459;53.044;8.910;2022-09-27T14:21:44;12.30;99.90
33095;DHT22;19459;53.044;8.910;2022-09-27T14:27:23;12.30;99.90
33095;DHT22;19459;53.044;8.910;2022-09-27T14:30:09;12.20;99.90
33095;DHT22;19459;53.044;8.910;2022-09-27T14:32:49;12.20;99.90
33095;DHT22;19459;53.044;8.910;2022-09-27T14:35:21;12.10;99.90
33095;DHT22;19459;53.044;8.910;2022-09-27T14:38:18;12.00;99.90
33095;DHT22;19459;53.044;8.910;2022-09-27T14:40:59;12.00;99.90
33095;DHT22;19459;53.044;8.910;2022-09-27T14:43:27;12.00;99.90
33095;DHT22;19459;53.044;8.910;2022-09-27T14:46:02;12.00;99.90
33095;DHT22;19459;53.044;8.910;2022-09-27T14:48:38;11.80;99.90
33095;DHT22;19459;53.044;8.910;2022-09-27T14:53:42;11.80;99.90
33095;DHT22;19459;53.044;8.910;2022-09-27T14:56:33;11.70;99.90
33095;DHT22;19459;53.044;8.910;2022-09-27T14:59:05;11.70;99.90
33095;DHT22;19459;53.044;8.910;2022-09-27T15:01:35;11.70;99.90
33095;DHT22;19459;53.044;8.910;2022-09-27T15:04:05;11.70;99.90
33095;DHT22;19459;53.044;8.910;2022-09-27T15:06:34;11.70;99.90
33095;DHT22;19459;53.044;8.910;2022-09-27T15:09:05;11.80;99.90
33095;DHT22;19459;53.044;8.910;2022-09-27T15:11:31;11.80;99.90
33095;DHT22;19459;53.044;8.910;2022-09-27T15:13:59;11.80;99.90
33095;DHT22;19459;53.044;8.910;2022-09-27T15:16:27;11.80;99.90
33095;DHT22;19459;53.044;8.910;2022-09-27T15:19:15;11.80;99.90
33095;DHT22;19459;53.044;8.910;2022-09-27T15:21:43;11.80;99.90
33095;DHT22;19459;53.044;8.910;2022-09-27T15:24:38;11.80;99.90
33095;DHT22;19459;53.044;8.910;2022-09-27T15:27:16;11.80;99.90
33095;DHT22;19459;53.044;8.910;2022-09-27T15:29:54;11.80;99.90
33095;DHT22;19459;53.044;8.910;2022-09-27T15:32:23;11.90;99.90
33095;DHT22;19459;53.044;8.910;2022-09-27T15:34:51;11.80;99.90
33095;DHT22;19459;53.044;8.910;2022-09-27T15:37:33;11.80;99.90
33095;DHT22;19459;53.044;8.910;2022-09-27T15:41:12;11.90;99.90
33095;DHT22;19459;53.044;8.910;2022-09-27T15:43:20;12.00;99.90
33095;DHT22;19459;53.044;8.910;2022-09-27T15:46:01;12.00;99.90
33095;DHT22;19459;53.044;8.910;2022-09-27T15:48:30;12.00;99.90
33095;DHT22;19459;53.044;8.910;2022-09-27T15:50:58;12.10;99.90
33095;DHT22;19459;53.044;8.910;2022-09-27T15:56:02;12.00;99.90
33095;DHT22;19459;53.044;8.910;2022-09-27T15:58:31;12.20;99.90
33095;DHT22;19459;53.044;8.910;2022-09-27T16:01:00;12.30;99.90
33095;DHT22;19459;53.044;8.910;2022-09-27T16:03:27;12.10;99.90
33095;DHT22;19459;53.044;8.910;2022-09-27T16:06:00;12.20;99.90
33095;DHT22;19459;53.044;8.910;2022-09-27T16:08:30;12.20;99.90
33095;DHT22;19459;53.044;8.910;2022-09-27T16:10:57;12.20;99.90
33095;DHT22;19459;53.044;8.910;2022-09-27T16:13:24;12.20;99.90
33095;DHT22;19459;53.044;8.910;2022-09-27T16:15:51;12.10;99.90
33095;DHT22;19459;53.044;8.910;2022-09-27T16:18:17;12.10;99.90
33095;DHT22;19459;53.044;8.910;2022-09-27T16:20:43;12.00;99.90
33095;DHT22;19459;53.044;8.910;2022-09-27T16:23:09;12.00;99.90
33095;DHT22;19459;53.044;8.910;2022-09-27T16:25:34;12.00;99.90
33095;DHT22;19459;53.044;8.910;2022-09-27T16:28:02;12.00;99.90
33095;DHT22;19459;53.044;8.910;2022-09-27T16:30:28;12.00;99.90
33095;DHT22;19459;53.044;8.910;2022-09-27T16:32:54;12.00;99.90
33095;DHT22;19459;53.044;8.910;2022-09-27T16:35:22;11.90;99.90
33095;DHT22;19459;53.044;8.910;2022-09-27T16:37:48;11.90;99.90
33095;DHT22;19459;53.044;8.910;2022-09-27T16:40:14;11.90;99.90
33095;DHT22;19459;53.044;8.910;2022-09-27T16:42:43;11.80;99.90
33095;DHT22;19459;53.044;8.910;2022-09-27T16:45:10;11.80;99.90
33095;DHT22;19459;53.044;8.910;2022-09-27T16:47:36;11.80;99.90
33095;DHT22;19459;53.044;8.910;2022-09-27T16:50:03;11.70;99.90
33095;DHT22;19459;53.044;8.910;2022-09-27T16:52:47;11.50;99.90
33095;DHT22;19459;53.044;8.910;2022-09-27T16:55:15;11.50;99.90
33095;DHT22;19459;53.044;8.910;2022-09-27T16:57:47;11.30;99.90
33095;DHT22;19459;53.044;8.910;2022-09-27T17:00:14;11.30;99.90
33095;DHT22;19459;53.044;8.910;2022-09-27T17:02:41;11.30;99.90
33095;DHT22;19459;53.044;8.910;2022-09-27T17:05:08;11.20;99.90
33095;DHT22;19459;53.044;8.910;2022-09-27T17:07:35;11.30;99.90
33095;DHT22;19459;53.044;8.910;2022-09-27T17:10:00;11.30;99.90
33095;DHT22;19459;53.044;8.910;2022-09-27T17:12:26;11.30;99.90
33095;DHT22;19459;53.044;8.910;2022-09-27T17:14:52;11.20;99.90
33095;DHT22;19459;53.044;8.910;2022-09-27T17:17:17;11.20;99.90
33095;DHT22;19459;53.044;8.910;2022-09-27T17:19:43;11.10;99.90
33095;DHT22;19459;53.044;8.910;2022-09-27T17:22:09;11.10;99.90
33095;DHT22;19459;53.044;8.910;2022-09-27T17:24:35;11.00;99.90
33095;DHT22;19459;53.044;8.910;2022-09-27T17:27:01;11.00;99.90
33095;DHT22;19459;53.044;8.910;2022-09-27T17:29:27;11.00;99.90
33095;DHT22;19459;53.044;8.910;2022-09-27T17:31:53;11.00;99.90
33095;DHT22;19459;53.044;8.910;2022-09-27T17:34:19;10.90;99.90
33095;DHT22;19459;53.044;8.910;2022-09-27T17:36:44;10.80;99.90
33095;DHT22;19459;53.044;8.910;2022-09-27T17:39:17;10.80;99.90
33095;DHT22;19459;53.044;8.910;2022-09-27T17:41:47;10.80;99.90
33095;DHT22;19459;53.044;8.910;2022-09-27T17:44:14;10.80;99.90
33095;DHT22;19459;53.044;8.910;2022-09-27T17:46:43;10.80;99.90
33095;DHT22;19459;53.044;8.910;2022-09-27T17:49:10;10.70;99.90
33095;DHT22;19459;53.044;8.910;2022-09-27T17:51:55;10.70;99.90
33095;DHT22;19459;53.044;8.910;2022-09-27T17:54:22;10.70;99.90
33095;DHT22;19459;53.044;8.910;2022-09-27T17:56:50;10.50;99.90
33095;DHT22;19459;53.044;8.910;2022-09-27T17:59:16;10.60;99.90
33095;DHT22;19459;53.044;8.910;2022-09-27T18:01:44;10.60;99.90
33095;DHT22;19459;53.044;8.910;2022-09-27T18:04:12;10.60;99.90
33095;DHT22;19459;53.044;8.910;2022-09-27T18:06:44;10.50;99.90
33095;DHT22;19459;53.044;8.910;2022-09-27T18:09:12;10.40;99.90
33095;DHT22;19459;53.044;8.910;2022-09-27T18:11:40;10.40;99.90
33095;DHT22;19459;53.044;8.910;2022-09-27T18:14:06;10.30;99.90
33095;DHT22;19459;53.044;8.910;2022-09-27T18:16:35;10.30;99.90
33095;DHT22;19459;53.044;8.910;2022-09-27T18:19:04;10.30;99.90
33095;DHT22;19459;53.044;8.910;2022-09-27T18:21:31;10.30;99.90
33095;DHT22;19459;53.044;8.910;2022-09-27T18:23:59;10.30;99.90
33095;DHT22;19459;53.044;8.910;2022-09-27T18:26:27;10.30;99.90
33095;DHT22;19459;53.044;8.910;2022-09-27T18:28:58;10.20;99.90
33095;DHT22;19459;53.044;8.910;2022-09-27T18:31:25;10.20;99.90
33095;DHT22;19459;53.044;8.910;2022-09-27T18:33:51;10.10;99.90